sensor_id;sensor_type;location;lat;lon;timestamp;temperature;humidity
78767;SHT31;68092;51.982;5.680;2024-03-06T00:00:08;11.6;57.3
78767;SHT31;68092;51.982;5.680;2024-03-06T00:02:39;11.6;57.2
78767;SHT31;68092;51.982;5.680;2024-03-06T00:05:07;11.5;57.0
78767;SHT31;68092;51.982;5.680;2024-03-06T00:07:36;11.5;57.0
78767;SHT31;68092;51.982;5.680;2024-03-06T00:10:07;11.5;57.2
78767;SHT31;68092;51.982;5.680;2024-03-06T00:12:36;11.5;56.9
78767;SHT31;68092;51.982;5.680;2024-03-06T00:15:05;11.4;56.8
78767;SHT31;68092;51.982;5.680;2024-03-06T00:17:34;11.4;57.0
78767;SHT31;68092;51.982;5.680;2024-03-06T00:20:03;11.4;56.7
78767;SHT31;68092;51.982;5.680;2024-03-06T00:22:36;11.4;56.7
78767;SHT31;68092;51.982;5.680;2024-03-06T00:25:08;11.3;56.5
78767;SHT31;68092;51.982;5.680;2024-03-06T00:27:37;11.3;56.4
78767;SHT31;68092;51.982;5.680;2024-03-06T00:30:06;11.3;56.0
78767;SHT31;68092;51.982;5.680;2024-03-06T00:32:35;11.2;55.8
78767;SHT31;68092;51.982;5.680;2024-03-06T00:35:04;11.2;55.8
78767;SHT31;68092;51.982;5.680;2024-03-06T00:37:33;11.2;55.7
78767;SHT31;68092;51.982;5.680;2024-03-06T00:40:01;11.1;55.7
78767;SHT31;68092;51.982;5.680;2024-03-06T00:42:31;11.1;55.4
78767;SHT31;68092;51.982;5.680;2024-03-06T00:44:59;11.1;55.3
78767;SHT31;68092;51.982;5.680;2024-03-06T00:47:28;11.0;55.2
78767;SHT31;68092;51.982;5.680;2024-03-06T00:49:57;11.0;55.5
78767;SHT31;68092;51.982;5.680;2024-03-06T00:52:27;10.9;55.7
78767;SHT31;68092;51.982;5.680;2024-03-06T00:54:56;10.9;56.0
78767;SHT31;68092;51.982;5.680;2024-03-06T00:57:24;10.8;55.9
78767;SHT31;68092;51.982;5.680;2024-03-06T00:59:53;10.8;56.1
78767;SHT31;68092;51.982;5.680;2024-03-06T01:02:25;10.7;56.2
78767;SHT31;68092;51.982;5.680;2024-03-06T01:04:53;10.7;56.3
78767;SHT31;68092;51.982;5.680;2024-03-06T01:07:22;10.7;56.5
78767;SHT31;68092;51.982;5.680;2024-03-06T01:09:51;10.7;56.2
78767;SHT31;68092;51.982;5.680;2024-03-06T01:12:20;10.6;56.4
78767;SHT31;68092;51.982;5.680;2024-03-06T01:14:48;10.6;56.2
78767;SHT31;68092;51.982;5.680;2024-03-06T01:17:17;10.6;56.0
78767;SHT31;68092;51.982;5.680;2024-03-06T01:19:45;10.6;56.2
78767;SHT31;68092;51.982;5.680;2024-03-06T01:22:15;10.5;56.0
78767;SHT31;68092;51.982;5.680;2024-03-06T01:24:43;10.5;56.0
78767;SHT31;68092;51.982;5.680;2024-03-06T01:27:15;10.5;55.9
78767;SHT31;68092;51.982;5.680;2024-03-06T01:29:44;10.4;56.0
78767;SHT31;68092;51.982;5.680;2024-03-06T01:32:12;10.4;56.0
78767;SHT31;68092;51.982;5.680;2024-03-06T01:34:41;10.4;55.8
78767;SHT31;68092;51.982;5.680;2024-03-06T01:37:09;10.4;55.8
78767;SHT31;68092;51.982;5.680;2024-03-06T01:39:38;10.4;55.7
78767;SHT31;68092;51.982;5.680;2024-03-06T01:42:07;10.3;55.6
78767;SHT31;68092;51.982;5.680;2024-03-06T01:44:36;10.3;55.4
78767;SHT31;68092;51.982;5.680;2024-03-06T01:47:05;10.3;55.8
78767;SHT31;68092;51.982;5.680;2024-03-06T01:49:33;10.3;56.1
78767;SHT31;68092;51.982;5.680;2024-03-06T01:52:03;10.2;56.2
78767;SHT31;68092;51.982;5.680;2024-03-06T01:54:32;10.2;56.0
78767;SHT31;68092;51.982;5.680;2024-03-06T01:57:02;10.2;56.2
78767;SHT31;68092;51.982;5.680;2024-03-06T01:59:31;10.2;56.2
78767;SHT31;68092;51.982;5.680;2024-03-06T02:02:00;10.2;56.2
78767;SHT31;68092;51.982;5.680;2024-03-06T02:04:30;10.1;56.3
78767;SHT31;68092;51.982;5.680;2024-03-06T02:07:00;10.1;56.0
78767;SHT31;68092;51.982;5.680;2024-03-06T02:09:29;10.1;55.7
78767;SHT31;68092;51.982;5.680;2024-03-06T02:11:58;10.1;55.5
78767;SHT31;68092;51.982;5.680;2024-03-06T02:14:27;10.1;55.6
78767;SHT31;68092;51.982;5.680;2024-03-06T02:16:57;10.0;55.5
78767;SHT31;68092;51.982;5.680;2024-03-06T02:19:42;10.0;55.8
78767;SHT31;68092;51.982;5.680;2024-03-06T02:22:11;10.0;56.1
78767;SHT31;68092;51.982;5.680;2024-03-06T02:24:47;10.0;56.1
78767;SHT31;68092;51.982;5.680;2024-03-06T02:27:16;9.9;56.3
78767;SHT31;68092;51.982;5.680;2024-03-06T02:29:45;9.9;56.3
78767;SHT31;68092;51.982;5.680;2024-03-06T02:32:14;9.9;56.4
78767;SHT31;68092;51.982;5.680;2024-03-06T02:34:44;9.9;56.4
78767;SHT31;68092;51.982;5.680;2024-03-06T02:37:13;9.8;56.7
78767;SHT31;68092;51.982;5.680;2024-03-06T02:39:41;9.8;56.5
78767;SHT31;68092;51.982;5.680;2024-03-06T02:42:10;9.8;56.1
78767;SHT31;68092;51.982;5.680;2024-03-06T02:44:38;9.8;55.8
78767;SHT31;68092;51.982;5.680;2024-03-06T02:47:07;9.8;56.0
78767;SHT31;68092;51.982;5.680;2024-03-06T02:49:36;9.8;56.3
78767;SHT31;68092;51.982;5.680;2024-03-06T02:52:07;9.7;56.3
78767;SHT31;68092;51.982;5.680;2024-03-06T02:54:36;9.7;57.0
78767;SHT31;68092;51.982;5.680;2024-03-06T02:57:04;9.7;56.2
78767;SHT31;68092;51.982;5.680;2024-03-06T02:59:33;9.6;56.5
78767;SHT31;68092;51.982;5.680;2024-03-06T03:02:02;9.6;56.6
78767;SHT31;68092;51.982;5.680;2024-03-06T03:04:30;9.6;56.7
78767;SHT31;68092;51.982;5.680;2024-03-06T03:06:59;9.6;57.0
78767;SHT31;68092;51.982;5.680;2024-03-06T03:09:28;9.6;57.1
78767;SHT31;68092;51.982;5.680;2024-03-06T03:11:56;9.6;57.2
78767;SHT31;68092;51.982;5.680;2024-03-06T03:14:25;9.6;57.3
78767;SHT31;68092;51.982;5.680;2024-03-06T03:16:54;9.5;57.5
78767;SHT31;68092;51.982;5.680;2024-03-06T03:19:24;9.5;57.6
78767;SHT31;68092;51.982;5.680;2024-03-06T03:21:53;9.5;57.5
78767;SHT31;68092;51.982;5.680;2024-03-06T03:24:21;9.5;57.2
78767;SHT31;68092;51.982;5.680;2024-03-06T03:26:52;9.5;57.2
78767;SHT31;68092;51.982;5.680;2024-03-06T03:29:21;9.5;57.3
78767;SHT31;68092;51.982;5.680;2024-03-06T03:31:49;9.5;57.2
78767;SHT31;68092;51.982;5.680;2024-03-06T03:34:20;9.5;57.7
78767;SHT31;68092;51.982;5.680;2024-03-06T03:36:51;9.5;57.2
78767;SHT31;68092;51.982;5.680;2024-03-06T03:39:19;9.5;57.2
78767;SHT31;68092;51.982;5.680;2024-03-06T03:41:51;9.5;57.4
78767;SHT31;68092;51.982;5.680;2024-03-06T03:44:21;9.5;57.3
78767;SHT31;68092;51.982;5.680;2024-03-06T03:46:50;9.5;57.2
78767;SHT31;68092;51.982;5.680;2024-03-06T03:49:20;9.5;57.0
78767;SHT31;68092;51.982;5.680;2024-03-06T03:51:49;9.5;57.0
78767;SHT31;68092;51.982;5.680;2024-03-06T03:54:18;9.5;57.0
78767;SHT31;68092;51.982;5.680;2024-03-06T03:56:47;9.4;56.9
78767;SHT31;68092;51.982;5.680;2024-03-06T03:59:15;9.4;57.0
78767;SHT31;68092;51.982;5.680;2024-03-06T04:01:46;9.4;56.7
78767;SHT31;68092;51.982;5.680;2024-03-06T04:04:15;9.4;56.8
78767;SHT31;68092;51.982;5.680;2024-03-06T04:06:43;9.4;56.8
78767;SHT31;68092;51.982;5.680;2024-03-06T04:09:12;9.4;57.0
78767;SHT31;68092;51.982;5.680;2024-03-06T04:11:44;9.4;57.2
78767;SHT31;68092;51.982;5.680;2024-03-06T04:14:15;9.3;57.2
78767;SHT31;68092;51.982;5.680;2024-03-06T04:16:45;9.3;56.9
78767;SHT31;68092;51.982;5.680;2024-03-06T04:19:14;9.3;56.7
78767;SHT31;68092;51.982;5.680;2024-03-06T04:21:43;9.3;56.9
78767;SHT31;68092;51.982;5.680;2024-03-06T04:24:12;9.3;57.0
78767;SHT31;68092;51.982;5.680;2024-03-06T04:26:41;9.3;57.2
78767;SHT31;68092;51.982;5.680;2024-03-06T04:29:10;9.3;56.8
78767;SHT31;68092;51.982;5.680;2024-03-06T04:31:38;9.3;56.7
78767;SHT31;68092;51.982;5.680;2024-03-06T04:34:07;9.3;56.5
78767;SHT31;68092;51.982;5.680;2024-03-06T04:36:35;9.3;56.3
78767;SHT31;68092;51.982;5.680;2024-03-06T04:39:04;9.2;56.2
78767;SHT31;68092;51.982;5.680;2024-03-06T04:41:34;9.2;56.4
78767;SHT31;68092;51.982;5.680;2024-03-06T04:44:02;9.2;56.3
78767;SHT31;68092;51.982;5.680;2024-03-06T04:46:31;9.2;56.2
78767;SHT31;68092;51.982;5.680;2024-03-06T04:48:59;9.2;56.2
78767;SHT31;68092;51.982;5.680;2024-03-06T04:51:28;9.2;56.1
78767;SHT31;68092;51.982;5.680;2024-03-06T04:53:57;9.2;56.3
78767;SHT31;68092;51.982;5.680;2024-03-06T04:56:25;9.2;56.1
78767;SHT31;68092;51.982;5.680;2024-03-06T04:58:54;9.1;56.3
78767;SHT31;68092;51.982;5.680;2024-03-06T05:01:22;9.1;56.0
78767;SHT31;68092;51.982;5.680;2024-03-06T05:03:51;9.1;55.9
78767;SHT31;68092;51.982;5.680;2024-03-06T05:06:20;9.1;56.2
78767;SHT31;68092;51.982;5.680;2024-03-06T05:08:49;9.1;56.3
78767;SHT31;68092;51.982;5.680;2024-03-06T05:11:18;9.0;56.0
78767;SHT31;68092;51.982;5.680;2024-03-06T05:13:47;9.0;55.9
78767;SHT31;68092;51.982;5.680;2024-03-06T05:16:16;9.0;55.4
78767;SHT31;68092;51.982;5.680;2024-03-06T05:18:44;9.0;55.6
78767;SHT31;68092;51.982;5.680;2024-03-06T05:21:16;9.0;55.8
78767;SHT31;68092;51.982;5.680;2024-03-06T05:23:45;9.0;55.7
78767;SHT31;68092;51.982;5.680;2024-03-06T05:26:14;9.0;55.6
78767;SHT31;68092;51.982;5.680;2024-03-06T05:28:43;8.9;55.9
78767;SHT31;68092;51.982;5.680;2024-03-06T05:31:18;8.9;56.1
78767;SHT31;68092;51.982;5.680;2024-03-06T05:33:49;8.9;56.0
78767;SHT31;68092;51.982;5.680;2024-03-06T05:36:18;8.9;56.1
78767;SHT31;68092;51.982;5.680;2024-03-06T05:38:46;8.9;56.1
78767;SHT31;68092;51.982;5.680;2024-03-06T05:41:16;8.9;55.8
78767;SHT31;68092;51.982;5.680;2024-03-06T05:43:45;8.9;56.2
78767;SHT31;68092;51.982;5.680;2024-03-06T05:46:15;8.8;55.9
78767;SHT31;68092;51.982;5.680;2024-03-06T05:48:45;8.8;56.4
78767;SHT31;68092;51.982;5.680;2024-03-06T05:51:14;8.8;56.9
78767;SHT31;68092;51.982;5.680;2024-03-06T05:53:43;8.8;56.8
78767;SHT31;68092;51.982;5.680;2024-03-06T05:56:12;8.8;58.1
78767;SHT31;68092;51.982;5.680;2024-03-06T05:58:40;8.8;59.1
78767;SHT31;68092;51.982;5.680;2024-03-06T06:01:08;8.8;59.7
78767;SHT31;68092;51.982;5.680;2024-03-06T06:03:37;8.8;59.9
78767;SHT31;68092;51.982;5.680;2024-03-06T06:06:07;8.8;60.1
78767;SHT31;68092;51.982;5.680;2024-03-06T06:08:36;8.8;59.8
78767;SHT31;68092;51.982;5.680;2024-03-06T06:11:07;8.8;60.1
78767;SHT31;68092;51.982;5.680;2024-03-06T06:13:36;8.9;61.4
78767;SHT31;68092;51.982;5.680;2024-03-06T06:16:06;8.9;61.2
78767;SHT31;68092;51.982;5.680;2024-03-06T06:18:34;8.9;60.7
78767;SHT31;68092;51.982;5.680;2024-03-06T06:21:03;8.9;61.0
78767;SHT31;68092;51.982;5.680;2024-03-06T06:23:35;8.9;61.5
78767;SHT31;68092;51.982;5.680;2024-03-06T06:26:06;9.0;62.9
78767;SHT31;68092;51.982;5.680;2024-03-06T06:28:37;9.0;63.8
78767;SHT31;68092;51.982;5.680;2024-03-06T06:31:05;9.0;64.4
78767;SHT31;68092;51.982;5.680;2024-03-06T06:33:34;9.1;64.2
78767;SHT31;68092;51.982;5.680;2024-03-06T06:36:02;9.1;64.5
78767;SHT31;68092;51.982;5.680;2024-03-06T06:38:31;9.1;64.9
78767;SHT31;68092;51.982;5.680;2024-03-06T06:40:59;9.2;65.1
78767;SHT31;68092;51.982;5.680;2024-03-06T06:43:29;9.2;65.0
78767;SHT31;68092;51.982;5.680;2024-03-06T06:45:57;9.2;65.1
78767;SHT31;68092;51.982;5.680;2024-03-06T06:48:26;9.3;65.1
78767;SHT31;68092;51.982;5.680;2024-03-06T06:50:55;9.3;65.1
78767;SHT31;68092;51.982;5.680;2024-03-06T06:53:23;9.4;64.9
78767;SHT31;68092;51.982;5.680;2024-03-06T06:55:52;9.4;65.0
78767;SHT31;68092;51.982;5.680;2024-03-06T06:58:20;9.4;65.1
78767;SHT31;68092;51.982;5.680;2024-03-06T07:00:49;9.5;65.0
78767;SHT31;68092;51.982;5.680;2024-03-06T07:03:18;9.5;65.2
78767;SHT31;68092;51.982;5.680;2024-03-06T07:05:48;9.5;65.5
78767;SHT31;68092;51.982;5.680;2024-03-06T07:08:16;9.6;65.5
78767;SHT31;68092;51.982;5.680;2024-03-06T07:10:45;9.6;65.4
78767;SHT31;68092;51.982;5.680;2024-03-06T07:13:15;9.6;65.7
78767;SHT31;68092;51.982;5.680;2024-03-06T07:15:44;9.6;65.3
78767;SHT31;68092;51.982;5.680;2024-03-06T07:18:13;9.7;65.4
78767;SHT31;68092;51.982;5.680;2024-03-06T07:20:41;9.7;65.1
78767;SHT31;68092;51.982;5.680;2024-03-06T07:23:10;9.7;64.8
78767;SHT31;68092;51.982;5.680;2024-03-06T07:25:38;9.7;64.6
78767;SHT31;68092;51.982;5.680;2024-03-06T07:28:07;9.7;64.6
78767;SHT31;68092;51.982;5.680;2024-03-06T07:30:35;9.7;64.3
78767;SHT31;68092;51.982;5.680;2024-03-06T07:33:04;9.7;63.9
78767;SHT31;68092;51.982;5.680;2024-03-06T07:35:34;9.7;63.8
78767;SHT31;68092;51.982;5.680;2024-03-06T07:38:03;9.7;64.0
78767;SHT31;68092;51.982;5.680;2024-03-06T07:40:32;9.6;63.9
78767;SHT31;68092;51.982;5.680;2024-03-06T07:43:01;9.6;64.2
78767;SHT31;68092;51.982;5.680;2024-03-06T07:45:30;9.6;64.3
78767;SHT31;68092;51.982;5.680;2024-03-06T07:47:59;9.6;64.4
78767;SHT31;68092;51.982;5.680;2024-03-06T07:50:28;9.6;64.6
78767;SHT31;68092;51.982;5.680;2024-03-06T07:52:57;9.6;64.6
78767;SHT31;68092;51.982;5.680;2024-03-06T07:55:26;9.6;64.9
78767;SHT31;68092;51.982;5.680;2024-03-06T07:57:55;9.6;64.9
78767;SHT31;68092;51.982;5.680;2024-03-06T08:00:25;9.6;64.9
78767;SHT31;68092;51.982;5.680;2024-03-06T08:02:53;9.7;65.1
78767;SHT31;68092;51.982;5.680;2024-03-06T08:05:24;9.7;65.2
78767;SHT31;68092;51.982;5.680;2024-03-06T08:07:53;9.7;65.5
78767;SHT31;68092;51.982;5.680;2024-03-06T08:10:23;9.7;65.3
78767;SHT31;68092;51.982;5.680;2024-03-06T08:12:51;9.8;65.4
78767;SHT31;68092;51.982;5.680;2024-03-06T08:15:20;9.8;65.5
78767;SHT31;68092;51.982;5.680;2024-03-06T08:17:51;9.8;65.2
78767;SHT31;68092;51.982;5.680;2024-03-06T08:20:20;9.9;65.2
78767;SHT31;68092;51.982;5.680;2024-03-06T08:22:49;9.9;65.2
78767;SHT31;68092;51.982;5.680;2024-03-06T08:25:20;9.9;65.4
78767;SHT31;68092;51.982;5.680;2024-03-06T08:27:51;9.9;65.3
78767;SHT31;68092;51.982;5.680;2024-03-06T08:30:19;10.0;65.5
78767;SHT31;68092;51.982;5.680;2024-03-06T08:32:48;10.0;65.4
78767;SHT31;68092;51.982;5.680;2024-03-06T08:35:16;10.0;65.5
78767;SHT31;68092;51.982;5.680;2024-03-06T08:37:47;10.0;65.7
78767;SHT31;68092;51.982;5.680;2024-03-06T08:40:17;10.1;66.0
78767;SHT31;68092;51.982;5.680;2024-03-06T08:42:47;10.1;66.0
78767;SHT31;68092;51.982;5.680;2024-03-06T08:45:16;10.1;65.9
78767;SHT31;68092;51.982;5.680;2024-03-06T08:47:46;10.1;66.1
78767;SHT31;68092;51.982;5.680;2024-03-06T08:50:17;10.2;66.2
78767;SHT31;68092;51.982;5.680;2024-03-06T08:52:46;10.2;66.1
78767;SHT31;68092;51.982;5.680;2024-03-06T08:55:15;10.3;66.0
78767;SHT31;68092;51.982;5.680;2024-03-06T08:57:44;10.3;66.3
78767;SHT31;68092;51.982;5.680;2024-03-06T09:00:13;10.3;66.2
78767;SHT31;68092;51.982;5.680;2024-03-06T09:02:43;10.4;66.0
78767;SHT31;68092;51.982;5.680;2024-03-06T09:05:12;10.4;65.9
78767;SHT31;68092;51.982;5.680;2024-03-06T09:07:41;10.4;66.0
78767;SHT31;68092;51.982;5.680;2024-03-06T09:10:11;10.4;66.1
78767;SHT31;68092;51.982;5.680;2024-03-06T09:12:40;10.4;66.7
78767;SHT31;68092;51.982;5.680;2024-03-06T09:15:09;10.4;66.6
78767;SHT31;68092;51.982;5.680;2024-03-06T09:17:38;10.5;67.3
78767;SHT31;68092;51.982;5.680;2024-03-06T09:20:08;10.5;67.4
78767;SHT31;68092;51.982;5.680;2024-03-06T09:22:39;10.5;67.5
78767;SHT31;68092;51.982;5.680;2024-03-06T09:25:08;10.6;67.5
78767;SHT31;68092;51.982;5.680;2024-03-06T09:27:40;10.6;67.6
78767;SHT31;68092;51.982;5.680;2024-03-06T09:30:09;10.6;67.2
78767;SHT31;68092;51.982;5.680;2024-03-06T09:32:40;10.7;67.1
78767;SHT31;68092;51.982;5.680;2024-03-06T09:35:10;10.7;66.8
78767;SHT31;68092;51.982;5.680;2024-03-06T09:37:40;10.7;67.1
78767;SHT31;68092;51.982;5.680;2024-03-06T09:40:10;10.8;67.1
78767;SHT31;68092;51.982;5.680;2024-03-06T09:42:40;10.8;67.4
78767;SHT31;68092;51.982;5.680;2024-03-06T09:45:09;10.8;67.2
78767;SHT31;68092;51.982;5.680;2024-03-06T09:47:38;10.9;67.3
78767;SHT31;68092;51.982;5.680;2024-03-06T09:50:10;10.9;67.1
78767;SHT31;68092;51.982;5.680;2024-03-06T09:52:41;10.9;67.6
78767;SHT31;68092;51.982;5.680;2024-03-06T09:55:12;11.0;67.6
78767;SHT31;68092;51.982;5.680;2024-03-06T09:57:41;11.0;67.0
78767;SHT31;68092;51.982;5.680;2024-03-06T10:00:10;11.0;66.8
78767;SHT31;68092;51.982;5.680;2024-03-06T10:02:48;11.1;66.9
78767;SHT31;68092;51.982;5.680;2024-03-06T10:05:24;11.1;67.1
78767;SHT31;68092;51.982;5.680;2024-03-06T10:07:53;11.1;66.7
78767;SHT31;68092;51.982;5.680;2024-03-06T10:10:22;11.1;67.2
78767;SHT31;68092;51.982;5.680;2024-03-06T10:12:51;11.2;68.0
78767;SHT31;68092;51.982;5.680;2024-03-06T10:15:20;11.2;68.8
78767;SHT31;68092;51.982;5.680;2024-03-06T10:17:50;11.2;68.4
78767;SHT31;68092;51.982;5.680;2024-03-06T10:20:24;11.3;68.0
78767;SHT31;68092;51.982;5.680;2024-03-06T10:22:54;11.3;67.7
78767;SHT31;68092;51.982;5.680;2024-03-06T10:25:24;11.3;67.8
78767;SHT31;68092;51.982;5.680;2024-03-06T10:28:08;11.4;68.2
78767;SHT31;68092;51.982;5.680;2024-03-06T10:30:38;11.4;67.9
78767;SHT31;68092;51.982;5.680;2024-03-06T10:33:09;11.4;67.9
78767;SHT31;68092;51.982;5.680;2024-03-06T10:35:41;11.4;68.3
78767;SHT31;68092;51.982;5.680;2024-03-06T10:38:10;11.5;68.0
78767;SHT31;68092;51.982;5.680;2024-03-06T10:40:40;11.5;67.8
78767;SHT31;68092;51.982;5.680;2024-03-06T10:43:11;11.5;67.8
78767;SHT31;68092;51.982;5.680;2024-03-06T10:45:47;11.6;67.2
78767;SHT31;68092;51.982;5.680;2024-03-06T10:48:18;11.6;67.2
78767;SHT31;68092;51.982;5.680;2024-03-06T10:50:49;11.6;67.1
78767;SHT31;68092;51.982;5.680;2024-03-06T10:53:18;11.7;67.1
78767;SHT31;68092;51.982;5.680;2024-03-06T10:55:50;11.7;66.8
78767;SHT31;68092;51.982;5.680;2024-03-06T10:58:20;11.7;67.1
78767;SHT31;68092;51.982;5.680;2024-03-06T11:00:51;11.8;67.3
78767;SHT31;68092;51.982;5.680;2024-03-06T11:03:21;11.8;66.9
78767;SHT31;68092;51.982;5.680;2024-03-06T11:05:51;11.8;66.5
78767;SHT31;68092;51.982;5.680;2024-03-06T11:08:20;11.9;66.3
78767;SHT31;68092;51.982;5.680;2024-03-06T11:10:51;11.9;66.7
78767;SHT31;68092;51.982;5.680;2024-03-06T11:13:24;11.9;67.2
78767;SHT31;68092;51.982;5.680;2024-03-06T11:15:57;11.9;66.4
78767;SHT31;68092;51.982;5.680;2024-03-06T11:18:42;12.0;66.7
78767;SHT31;68092;51.982;5.680;2024-03-06T11:21:30;12.0;66.6
78767;SHT31;68092;51.982;5.680;2024-03-06T11:24:15;12.1;66.5
78767;SHT31;68092;51.982;5.680;2024-03-06T11:26:48;12.1;66.5
78767;SHT31;68092;51.982;5.680;2024-03-06T11:29:19;12.1;66.2
78767;SHT31;68092;51.982;5.680;2024-03-06T11:32:08;12.2;65.8
78767;SHT31;68092;51.982;5.680;2024-03-06T11:34:38;12.2;65.8
78767;SHT31;68092;51.982;5.680;2024-03-06T11:37:08;12.2;65.4
78767;SHT31;68092;51.982;5.680;2024-03-06T11:39:38;12.3;64.9
78767;SHT31;68092;51.982;5.680;2024-03-06T11:42:12;12.3;65.5
78767;SHT31;68092;51.982;5.680;2024-03-06T11:44:54;12.3;65.8
78767;SHT31;68092;51.982;5.680;2024-03-06T11:47:26;12.3;66.4
78767;SHT31;68092;51.982;5.680;2024-03-06T11:49:54;12.3;66.1
78767;SHT31;68092;51.982;5.680;2024-03-06T11:52:23;12.4;65.6
78767;SHT31;68092;51.982;5.680;2024-03-06T11:54:53;12.4;65.5
78767;SHT31;68092;51.982;5.680;2024-03-06T11:57:22;12.4;65.5
78767;SHT31;68092;51.982;5.680;2024-03-06T11:59:52;12.5;65.4
78767;SHT31;68092;51.982;5.680;2024-03-06T12:02:22;12.5;65.7
78767;SHT31;68092;51.982;5.680;2024-03-06T12:04:51;12.5;65.6
78767;SHT31;68092;51.982;5.680;2024-03-06T12:07:20;12.6;65.5
78767;SHT31;68092;51.982;5.680;2024-03-06T12:09:49;12.6;65.1
78767;SHT31;68092;51.982;5.680;2024-03-06T12:12:20;12.6;64.6
78767;SHT31;68092;51.982;5.680;2024-03-06T12:14:57;12.6;64.3
78767;SHT31;68092;51.982;5.680;2024-03-06T12:17:30;12.7;64.1
78767;SHT31;68092;51.982;5.680;2024-03-06T12:20:09;12.7;64.5
78767;SHT31;68092;51.982;5.680;2024-03-06T12:22:43;12.7;64.9
78767;SHT31;68092;51.982;5.680;2024-03-06T12:25:21;12.7;64.3
78767;SHT31;68092;51.982;5.680;2024-03-06T12:27:52;12.7;64.2
78767;SHT31;68092;51.982;5.680;2024-03-06T12:30:24;12.8;64.3
78767;SHT31;68092;51.982;5.680;2024-03-06T12:33:01;12.8;64.2
78767;SHT31;68092;51.982;5.680;2024-03-06T12:35:31;12.8;64.9
78767;SHT31;68092;51.982;5.680;2024-03-06T12:38:00;12.8;64.3
78767;SHT31;68092;51.982;5.680;2024-03-06T12:40:31;12.8;64.8
78767;SHT31;68092;51.982;5.680;2024-03-06T12:42:59;12.9;64.6
78767;SHT31;68092;51.982;5.680;2024-03-06T12:45:29;12.9;64.7
78767;SHT31;68092;51.982;5.680;2024-03-06T12:47:59;12.9;64.8
78767;SHT31;68092;51.982;5.680;2024-03-06T12:50:27;12.9;63.9
78767;SHT31;68092;51.982;5.680;2024-03-06T12:52:56;13.0;63.6
78767;SHT31;68092;51.982;5.680;2024-03-06T12:55:25;13.0;64.3
78767;SHT31;68092;51.982;5.680;2024-03-06T12:57:54;13.0;63.5
78767;SHT31;68092;51.982;5.680;2024-03-06T13:00:23;13.1;63.1
78767;SHT31;68092;51.982;5.680;2024-03-06T13:02:51;13.1;63.1
78767;SHT31;68092;51.982;5.680;2024-03-06T13:05:21;13.1;63.0
78767;SHT31;68092;51.982;5.680;2024-03-06T13:07:50;13.2;63.3
78767;SHT31;68092;51.982;5.680;2024-03-06T13:10:19;13.2;62.6
78767;SHT31;68092;51.982;5.680;2024-03-06T13:12:50;13.2;63.3
78767;SHT31;68092;51.982;5.680;2024-03-06T13:15:19;13.2;62.2
78767;SHT31;68092;51.982;5.680;2024-03-06T13:17:47;13.3;62.2
78767;SHT31;68092;51.982;5.680;2024-03-06T13:20:17;13.3;62.6
78767;SHT31;68092;51.982;5.680;2024-03-06T13:22:45;13.3;61.6
78767;SHT31;68092;51.982;5.680;2024-03-06T13:25:14;13.3;60.8
78767;SHT31;68092;51.982;5.680;2024-03-06T13:27:43;13.4;60.9
78767;SHT31;68092;51.982;5.680;2024-03-06T13:30:12;13.4;60.1
78767;SHT31;68092;51.982;5.680;2024-03-06T13:32:41;13.4;60.3
78767;SHT31;68092;51.982;5.680;2024-03-06T13:35:12;13.4;59.8
78767;SHT31;68092;51.982;5.680;2024-03-06T13:37:41;13.5;59.9
78767;SHT31;68092;51.982;5.680;2024-03-06T13:40:10;13.5;59.8
78767;SHT31;68092;51.982;5.680;2024-03-06T13:42:40;13.5;59.2
78767;SHT31;68092;51.982;5.680;2024-03-06T13:45:09;13.6;58.3
78767;SHT31;68092;51.982;5.680;2024-03-06T13:47:41;13.6;58.2
78767;SHT31;68092;51.982;5.680;2024-03-06T13:50:12;13.6;58.0
78767;SHT31;68092;51.982;5.680;2024-03-06T13:52:42;13.6;57.3
78767;SHT31;68092;51.982;5.680;2024-03-06T13:55:11;13.7;57.9
78767;SHT31;68092;51.982;5.680;2024-03-06T13:57:42;13.7;58.5
78767;SHT31;68092;51.982;5.680;2024-03-06T14:00:11;13.7;58.1
78767;SHT31;68092;51.982;5.680;2024-03-06T14:02:44;13.7;56.5
78767;SHT31;68092;51.982;5.680;2024-03-06T14:05:14;13.8;57.2
78767;SHT31;68092;51.982;5.680;2024-03-06T14:07:42;13.8;56.1
78767;SHT31;68092;51.982;5.680;2024-03-06T14:10:11;13.8;56.1
78767;SHT31;68092;51.982;5.680;2024-03-06T14:12:40;13.8;56.4
78767;SHT31;68092;51.982;5.680;2024-03-06T14:15:09;13.8;56.1
78767;SHT31;68092;51.982;5.680;2024-03-06T14:17:38;13.8;56.3
78767;SHT31;68092;51.982;5.680;2024-03-06T14:20:08;13.8;55.8
78767;SHT31;68092;51.982;5.680;2024-03-06T14:22:38;13.9;55.2
78767;SHT31;68092;51.982;5.680;2024-03-06T14:25:14;13.9;55.2
78767;SHT31;68092;51.982;5.680;2024-03-06T14:27:44;13.9;54.7
78767;SHT31;68092;51.982;5.680;2024-03-06T14:30:14;13.9;55.1
78767;SHT31;68092;51.982;5.680;2024-03-06T14:32:46;13.9;54.8
78767;SHT31;68092;51.982;5.680;2024-03-06T14:35:15;13.9;54.5
78767;SHT31;68092;51.982;5.680;2024-03-06T14:37:44;13.9;54.2
78767;SHT31;68092;51.982;5.680;2024-03-06T14:40:17;13.9;53.7
78767;SHT31;68092;51.982;5.680;2024-03-06T14:42:46;13.9;53.3
78767;SHT31;68092;51.982;5.680;2024-03-06T14:45:14;13.9;53.5
78767;SHT31;68092;51.982;5.680;2024-03-06T14:47:43;13.9;53.9
78767;SHT31;68092;51.982;5.680;2024-03-06T14:50:13;13.9;53.5
78767;SHT31;68092;51.982;5.680;2024-03-06T14:52:43;13.9;53.6
78767;SHT31;68092;51.982;5.680;2024-03-06T14:55:12;13.9;53.4
78767;SHT31;68092;51.982;5.680;2024-03-06T14:57:41;13.9;53.9
78767;SHT31;68092;51.982;5.680;2024-03-06T15:00:10;13.9;53.9
78767;SHT31;68092;51.982;5.680;2024-03-06T15:02:39;14.0;54.2
78767;SHT31;68092;51.982;5.680;2024-03-06T15:05:09;14.0;53.9
78767;SHT31;68092;51.982;5.680;2024-03-06T15:07:38;14.0;54.1
78767;SHT31;68092;51.982;5.680;2024-03-06T15:10:07;14.0;54.3
78767;SHT31;68092;51.982;5.680;2024-03-06T15:12:37;14.0;53.4
78767;SHT31;68092;51.982;5.680;2024-03-06T15:15:09;14.0;53.7
78767;SHT31;68092;51.982;5.680;2024-03-06T15:17:37;14.0;54.3
78767;SHT31;68092;51.982;5.680;2024-03-06T15:20:07;14.0;53.6
78767;SHT31;68092;51.982;5.680;2024-03-06T15:22:36;14.0;53.4
78767;SHT31;68092;51.982;5.680;2024-03-06T15:25:08;14.0;53.1
78767;SHT31;68092;51.982;5.680;2024-03-06T15:27:37;14.0;52.8
78767;SHT31;68092;51.982;5.680;2024-03-06T15:30:07;14.1;53.2
78767;SHT31;68092;51.982;5.680;2024-03-06T15:32:38;14.1;53.0
78767;SHT31;68092;51.982;5.680;2024-03-06T15:35:07;14.1;53.1
78767;SHT31;68092;51.982;5.680;2024-03-06T15:37:38;14.1;53.4
78767;SHT31;68092;51.982;5.680;2024-03-06T15:40:08;14.1;53.4
78767;SHT31;68092;51.982;5.680;2024-03-06T15:42:38;14.1;52.7
78767;SHT31;68092;51.982;5.680;2024-03-06T15:45:07;14.1;53.1
78767;SHT31;68092;51.982;5.680;2024-03-06T15:47:36;14.1;53.2
78767;SHT31;68092;51.982;5.680;2024-03-06T15:50:09;14.1;52.9
78767;SHT31;68092;51.982;5.680;2024-03-06T15:52:38;14.1;53.0
78767;SHT31;68092;51.982;5.680;2024-03-06T15:55:08;14.1;53.4
78767;SHT31;68092;51.982;5.680;2024-03-06T15:57:37;14.1;53.5
78767;SHT31;68092;51.982;5.680;2024-03-06T16:00:07;14.1;53.7
78767;SHT31;68092;51.982;5.680;2024-03-06T16:02:41;14.1;53.6
78767;SHT31;68092;51.982;5.680;2024-03-06T16:05:10;14.1;53.6
78767;SHT31;68092;51.982;5.680;2024-03-06T16:07:39;14.1;53.9
78767;SHT31;68092;51.982;5.680;2024-03-06T16:10:08;14.2;54.3
78767;SHT31;68092;51.982;5.680;2024-03-06T16:12:37;14.2;54.2
78767;SHT31;68092;51.982;5.680;2024-03-06T16:15:07;14.2;53.7
78767;SHT31;68092;51.982;5.680;2024-03-06T16:17:35;14.1;53.6
78767;SHT31;68092;51.982;5.680;2024-03-06T16:20:05;14.1;53.5
78767;SHT31;68092;51.982;5.680;2024-03-06T16:22:33;14.1;53.8